Time;durP1;ratioP1;P1;durP2;ratioP2;P2;SDS_P1;SDS_P2;PMS_P1;PMS_P2;Temp;Humidity;BMP_temperature;BMP_pressure;BME280_temperature;BME280_humidity;BME280_pressure;Samples;Min_cycle;Max_cycle;Signal;HPM_P1;HPM_P2
2023/11/12 00:01:40;;;;;;;28.70;17.92;;;179.80;2252.80;;;;;;5048712;28;20080;-62
2023/11/12 00:04:06;;;;;;;29.90;17.48;;;179.70;2252.80;;;;;;5047534;28;20037;-63
2023/11/12 00:06:31;;;;;;;33.13;19.55;;;179.70;2252.80;;;;;;5048250;28;20082;-63
2023/11/12 00:08:57;;;;;;;33.40;20.10;;;179.60;2252.80;;;;;;5047699;28;20028;-62
2023/11/12 00:11:23;;;;;;;34.75;19.88;;;179.50;2252.80;;;;;;5048405;28;20064;-61
2023/11/12 00:13:49;;;;;;;38.47;22.02;;;179.50;2252.80;;;;;;5047495;28;20043;-60
2023/11/12 00:16:15;;;;;;;65.32;34.25;;;179.40;2252.80;;;;;;5048364;28;20606;-63
2023/11/12 00:18:41;;;;;;;37.22;20.92;;;179.40;2252.80;;;;;;5048019;28;20055;-61
2023/11/12 00:21:07;;;;;;;23.98;14.18;;;179.50;2252.80;;;;;;5048230;28;20016;-61
2023/11/12 00:23:36;;;;;;;58.17;32.47;;;179.40;2252.80;;;;;;5048630;28;20848;-61
2023/11/12 00:26:02;;;;;;;220.73;102.55;;;179.40;2252.80;;;;;;5046583;28;20074;-65
2023/11/12 00:28:28;;;;;;;167.27;84.47;;;179.40;2252.80;;;;;;5048610;28;20112;-62
2023/11/12 00:30:55;;;;;;;143.40;76.82;;;179.40;2252.80;;;;;;5048536;28;20120;-60
2023/11/12 00:33:21;;;;;;;213.80;115.55;;;179.40;2252.80;;;;;;5046894;28;20029;-61
2023/11/12 00:35:47;;;;;;;58.10;35.67;;;179.50;2252.80;;;;;;5047418;28;20017;-62
2023/11/12 00:38:13;;;;;;;72.80;38.42;;;179.50;2252.80;;;;;;5048325;28;20039;-63
2023/11/12 00:40:38;;;;;;;23.40;12.85;;;179.50;2252.80;;;;;;5047166;28;20029;-64
2023/11/12 00:43:04;;;;;;;16.90;12.88;;;179.50;2252.80;;;;;;5062885;28;20029;-62
2023/11/12 00:45:30;;;;;;;29.20;16.98;;;179.60;2252.80;;;;;;5048321;28;20471;-61
2023/11/12 00:47:57;;;;;;;15.50;8.82;;;179.70;2252.80;;;;;;5047911;28;20078;-64
2023/11/12 00:50:23;;;;;;;12.27;8.38;;;179.60;2252.80;;;;;;5048174;28;20041;-61
2023/11/12 00:52:49;;;;;;;28.45;14.30;;;179.50;2252.80;;;;;;5048544;28;20032;-61
2023/11/12 00:55:15;;;;;;;35.58;19.30;;;179.60;2252.80;;;;;;5047910;28;20025;-61
2023/11/12 00:57:41;;;;;;;32.75;18.42;;;179.70;2252.80;;;;;;5047852;28;20163;-60
2023/11/12 01:00:08;;;;;;;32.28;16.05;;;179.90;2252.80;;;;;;5047464;28;20099;-60
2023/11/12 01:02:33;;;;;;;30.27;19.98;;;180.00;2252.80;;;;;;5047876;28;20049;-62
2023/11/12 01:04:59;;;;;;;31.60;17.85;;;180.00;2252.80;;;;;;5047899;28;20041;-61
2023/11/12 01:07:25;;;;;;;33.72;20.48;;;180.00;2252.80;;;;;;5047940;28;20462;-62
2023/11/12 01:09:50;;;;;;;30.63;17.70;;;180.00;2252.80;;;;;;5047800;28;20052;-61
2023/11/12 01:12:19;;;;;;;34.95;19.75;;;180.00;2252.80;;;;;;5047287;28;20104;-60
2023/11/12 01:14:45;;;;;;;26.48;15.98;;;180.10;2252.80;;;;;;5047332;28;20032;-61
2023/11/12 01:17:11;;;;;;;14.40;8.95;;;180.10;2252.80;;;;;;5048155;28;20060;-60
2023/11/12 01:19:37;;;;;;;12.95;8.27;;;180.00;2252.80;;;;;;5046825;28;20125;-60
2023/11/12 01:22:03;;;;;;;13.85;8.50;;;180.00;2252.80;;;;;;5048045;28;20025;-63
2023/11/12 01:24:29;;;;;;;12.80;8.20;;;179.90;2252.80;;;;;;5047018;28;20096;-62
2023/11/12 01:26:55;;;;;;;15.23;8.98;;;179.70;2252.80;;;;;;5046625;28;20025;-61
2023/11/12 01:29:21;;;;;;;13.77;9.50;;;179.70;2252.80;;;;;;5046666;28;21406;-61
2023/11/12 01:31:46;;;;;;;11.68;7.43;;;179.60;2252.80;;;;;;5048572;28;20041;-60
2023/11/12 01:34:14;;;;;;;14.65;9.30;;;179.80;2252.80;;;;;;5049896;28;20031;-61
2023/11/12 01:36:39;;;;;;;21.90;11.52;;;179.80;2252.80;;;;;;5048846;28;20475;-60
2023/11/12 01:39:08;;;;;;;17.35;10.13;;;180.10;2252.80;;;;;;5063147;28;20043;-60
2023/11/12 01:41:34;;;;;;;78.00;39.78;;;179.90;2252.80;;;;;;5049021;28;20479;-61
2023/11/12 01:43:59;;;;;;;43.63;21.48;;;179.90;2252.80;;;;;;5049132;28;20044;-60
2023/11/12 01:46:26;;;;;;;53.05;28.90;;;180.00;2252.80;;;;;;5048909;28;20025;-61
2023/11/12 01:48:54;;;;;;;40.25;23.10;;;180.10;2252.80;;;;;;5046026;28;20029;-61
2023/11/12 01:51:21;;;;;;;22.38;14.75;;;180.10;2252.80;;;;;;5046428;28;20043;-61
2023/11/12 01:53:48;;;;;;;15.73;8.80;;;204.80;2252.80;;;;;;5048523;28;20025;-62
2023/11/12 01:56:16;;;;;;;11.90;7.85;;;180.10;2252.80;;;;;;5046626;28;20886;-61
2023/11/12 01:58:44;;;;;;;21.08;12.13;;;204.80;2252.80;;;;;;5049140;28;20468;-60
2023/11/12 02:01:10;;;;;;;21.38;12.73;;;180.10;2252.80;;;;;;5049246;28;20052;-60
2023/11/12 02:03:36;;;;;;;18.23;11.57;;;180.10;2252.80;;;;;;5048937;28;20021;-61
2023/11/12 02:06:03;;;;;;;24.50;14.88;;;180.10;2252.80;;;;;;5049157;28;20022;-60
2023/11/12 02:08:30;;;;;;;53.22;28.05;;;180.10;2252.80;;;;;;5048971;28;20043;-60
2023/11/12 02:10:57;;;;;;;61.90;32.65;;;180.10;2252.80;;;;;;5048839;28;20175;-60
2023/11/12 02:13:22;;;;;;;80.18;39.55;;;180.10;2252.80;;;;;;5049155;28;20032;-60
2023/11/12 02:15:50;;;;;;;54.90;25.10;;;180.10;2252.80;;;;;;5048967;28;20029;-60
2023/11/12 02:18:16;;;;;;;37.38;21.73;;;180.10;2252.80;;;;;;5049040;28;20112;-61
2023/11/12 02:20:46;;;;;;;53.13;26.80;;;180.10;2252.80;;;;;;5048905;28;20025;-60
2023/11/12 02:23:14;;;;;;;33.85;18.83;;;180.10;2252.80;;;;;;5048895;28;20021;-61
2023/11/12 02:25:44;;;;;;;55.80;31.95;;;180.10;2252.80;;;;;;5049095;28;20037;-60
2023/11/12 02:28:11;;;;;;;60.83;31.48;;;180.10;2252.80;;;;;;5049025;28;20118;-60
2023/11/12 02:30:38;;;;;;;121.80;62.25;;;204.80;2252.80;;;;;;5048814;28;20041;-60
2023/11/12 02:33:05;;;;;;;84.82;46.67;;;204.80;2252.80;;;;;;5049025;28;20025;-60
2023/11/12 02:35:32;;;;;;;73.97;39.22;;;204.80;2252.80;;;;;;5048974;28;20025;-60
2023/11/12 02:37:58;;;;;;;71.40;35.45;;;204.80;2252.80;;;;;;5048772;28;20075;-61
2023/11/12 02:40:25;;;;;;;20.98;12.23;;;204.90;2252.80;;;;;;5049004;28;20023;-61
2023/11/12 02:42:51;;;;;;;9.93;6.30;;;204.80;2252.80;;;;;;5048825;28;20029;-61
2023/11/12 02:45:18;;;;;;;9.18;5.97;;;180.10;2252.80;;;;;;5048671;28;20052;-61
2023/11/12 02:47:44;;;;;;;9.18;5.20;;;180.10;2252.80;;;;;;5048785;28;20104;-61
2023/11/12 02:50:32;;;;;;;11.10;5.80;;;180.10;2252.80;;;;;;5050938;28;20021;-61
2023/11/12 02:53:03;;;;;;;9.57;6.07;;;179.90;2252.80;;;;;;5050096;28;20102;-60
2023/11/12 02:55:31;;;;;;;14.85;8.85;;;180.10;2252.80;;;;;;5048466;28;20112;-61
2023/11/12 02:57:58;;;;;;;13.60;5.85;;;180.10;2252.80;;;;;;5048783;28;20032;-61
2023/11/12 03:00:27;;;;;;;7.28;4.25;;;180.10;2252.80;;;;;;5052297;28;20060;-61
2023/11/12 03:02:54;;;;;;;5.90;3.30;;;204.80;2252.80;;;;;;5052980;28;20052;-61
2023/11/12 03:05:20;;;;;;;5.88;3.00;;;204.80;2252.80;;;;;;5052405;28;20017;-61
2023/11/12 03:07:46;;;;;;;4.72;2.22;;;204.90;2252.80;;;;;;5052069;28;20029;-62
2023/11/12 03:10:11;;;;;;;6.55;2.65;;;180.10;2252.80;;;;;;5052282;28;20029;-60
2023/11/12 03:12:38;;;;;;;5.35;2.58;;;204.80;2252.80;;;;;;5051870;28;20036;-61
2023/11/12 03:15:07;;;;;;;14.50;9.55;;;180.10;2252.80;;;;;;5052112;28;20048;-61
2023/11/12 03:17:34;;;;;;;17.02;13.90;;;180.00;2252.80;;;;;;5052075;28;20510;-61
2023/11/12 03:20:03;;;;;;;11.95;7.20;;;180.00;2252.80;;;;;;5051676;28;20029;-61
2023/11/12 03:22:31;;;;;;;12.07;8.05;;;180.00;2252.80;;;;;;5051640;28;20404;-60
2023/11/12 03:24:58;;;;;;;14.23;8.30;;;179.80;2252.80;;;;;;5051484;28;20029;-62
2023/11/12 03:27:25;;;;;;;11.68;6.88;;;179.80;2252.80;;;;;;5051860;28;20021;-61
2023/11/12 03:29:51;;;;;;;8.85;5.72;;;179.90;2252.80;;;;;;5051427;28;20028;-61
2023/11/12 03:32:18;;;;;;;15.60;4.97;;;179.80;2252.80;;;;;;5051674;28;20086;-61
2023/11/12 03:34:43;;;;;;;27.10;16.55;;;179.90;2252.80;;;;;;5051635;28;20024;-60
2023/11/12 03:37:09;;;;;;;30.20;16.40;;;179.80;2252.80;;;;;;5051822;28;20033;-60
2023/11/12 03:39:35;;;;;;;24.33;15.75;;;179.70;2252.80;;;;;;5051425;28;20033;-61
2023/11/12 03:42:01;;;;;;;14.18;8.52;;;179.70;2252.80;;;;;;5033343;28;20471;-60
2023/11/12 03:44:27;;;;;;;9.38;7.13;;;179.60;2252.80;;;;;;5051336;28;20075;-60
2023/11/12 03:46:53;;;;;;;11.63;6.10;;;179.60;2252.80;;;;;;5033631;28;20037;-60
2023/11/12 03:49:19;;;;;;;10.80;5.22;;;179.50;2252.80;;;;;;5051150;28;20025;-61
2023/11/12 03:51:44;;;;;;;6.65;4.18;;;179.40;2252.80;;;;;;5051258;28;20056;-61
2023/11/12 03:54:10;;;;;;;7.03;2.83;;;179.30;2252.80;;;;;;5051276;28;20028;-61
2023/11/12 03:56:36;;;;;;;5.22;2.38;;;179.20;2252.80;;;;;;5051307;28;20025;-61
2023/11/12 03:59:02;;;;;;;5.43;2.10;;;154.20;2252.80;;;;;;5051329;28;20025;-60
2023/11/12 04:01:27;;;;;;;11.68;7.15;;;154.10;2252.80;;;;;;5050753;28;20049;-61
2023/11/12 04:03:53;;;;;;;9.00;4.05;;;154.10;2252.80;;;;;;5051193;28;20029;-61
2023/11/12 04:06:19;;;;;;;9.30;5.28;;;153.90;2252.80;;;;;;5051054;28;20013;-60
2023/11/12 04:08:45;;;;;;;54.03;25.65;;;154.00;2252.80;;;;;;5050886;28;20027;-61
2023/11/12 04:11:12;;;;;;;7.20;3.83;;;154.00;2252.80;;;;;;5051172;28;20033;-60
2023/11/12 04:13:37;;;;;;;5.72;3.45;;;153.90;2252.80;;;;;;5050930;28;20445;-61
2023/11/12 04:16:05;;;;;;;7.93;3.78;;;153.80;2252.80;;;;;;5050994;28;20104;-60
2023/11/12 04:18:30;;;;;;;11.75;6.22;;;153.80;2252.80;;;;;;5050947;28;20092;-61
2023/11/12 04:20:59;;;;;;;37.38;17.10;;;153.80;2252.80;;;;;;5050658;28;20031;-61
2023/11/12 04:23:25;;;;;;;11.00;5.60;;;153.80;2252.80;;;;;;5050492;28;20033;-61
2023/11/12 04:25:50;;;;;;;8.00;4.38;;;153.70;2252.80;;;;;;5050544;28;20029;-60
2023/11/12 04:28:16;;;;;;;7.57;4.55;;;153.70;2252.80;;;;;;5050504;28;20025;-61
2023/11/12 04:30:42;;;;;;;10.13;5.80;;;153.70;2252.80;;;;;;5050640;28;20033;-60
2023/11/12 04:33:08;;;;;;;19.23;7.72;;;153.60;2252.80;;;;;;5050305;28;20032;-61
2023/11/12 04:35:33;;;;;;;12.88;6.82;;;153.70;2252.80;;;;;;5050607;28;20021;-60
2023/11/12 04:38:00;;;;;;;104.40;57.72;;;153.70;2252.80;;;;;;5050263;28;20025;-60
2023/11/12 04:40:26;;;;;;;147.35;79.65;;;153.70;2252.80;;;;;;5050203;28;20074;-61
2023/11/12 04:42:52;;;;;;;152.23;98.35;;;153.70;2252.80;;;;;;5050396;28;20025;-60
2023/11/12 04:45:19;;;;;;;160.98;96.80;;;153.60;2252.80;;;;;;5050170;28;20361;-61
2023/11/12 04:47:45;;;;;;;104.80;63.20;;;153.60;2252.80;;;;;;5049926;28;20394;-60
2023/11/12 04:50:11;;;;;;;51.67;36.17;;;153.60;2252.80;;;;;;5050252;28;20028;-61
2023/11/12 04:52:37;;;;;;;42.45;27.65;;;128.90;2252.80;;;;;;5050122;28;20040;-61
2023/11/12 04:55:03;;;;;;;55.67;36.97;;;128.90;2252.80;;;;;;5050175;28;20116;-61
2023/11/12 04:57:29;;;;;;;51.47;33.03;;;128.90;2252.80;;;;;;5049905;28;20025;-61
2023/11/12 04:59:55;;;;;;;21.52;15.10;;;128.90;2252.80;;;;;;5049852;28;20078;-61
2023/11/12 05:02:21;;;;;;;53.33;36.22;;;128.90;2252.80;;;;;;5049788;28;20524;-60
2023/11/12 05:04:47;;;;;;;35.85;25.73;;;128.70;2252.80;;;;;;5049752;28;20504;-60
2023/11/12 05:07:13;;;;;;;22.25;15.88;;;128.80;2252.80;;;;;;5049978;28;20053;-61
2023/11/12 05:09:38;;;;;;;20.13;14.40;;;128.80;2252.80;;;;;;5049718;28;20060;-60
2023/11/12 05:12:05;;;;;;;13.15;8.70;;;128.70;2252.80;;;;;;5049721;28;20037;-61
2023/11/12 05:14:30;;;;;;;28.77;15.18;;;128.80;2252.80;;;;;;5049950;28;20646;-60
2023/11/12 05:16:56;;;;;;;16.45;10.45;;;128.90;2252.80;;;;;;5049660;28;20493;-61
2023/11/12 05:19:22;;;;;;;25.48;18.90;;;128.80;2252.80;;;;;;5049679;28;20033;-61
2023/11/12 05:21:47;;;;;;;18.33;11.98;;;128.80;2252.80;;;;;;5049430;28;20120;-61
2023/11/12 05:24:13;;;;;;;24.23;13.88;;;128.70;2252.80;;;;;;5049766;28;20029;-60
2023/11/12 05:26:42;;;;;;;13.13;8.52;;;128.90;2252.80;;;;;;5031793;28;20029;-60
2023/11/12 05:29:08;;;;;;;13.43;7.78;;;128.60;2252.80;;;;;;5049581;28;20021;-60
2023/11/12 05:31:35;;;;;;;22.77;14.77;;;128.50;2252.80;;;;;;5049328;28;20398;-61
2023/11/12 05:34:01;;;;;;;14.05;9.35;;;128.40;2252.80;;;;;;5049531;28;20021;-60
2023/11/12 05:36:27;;;;;;;13.43;8.93;;;128.30;2252.80;;;;;;5049471;28;20029;-61
2023/11/12 05:38:53;;;;;;;11.23;6.30;;;128.30;2252.80;;;;;;5049412;28;20423;-60
2023/11/12 05:41:19;;;;;;;15.02;7.25;;;128.30;2252.80;;;;;;5049341;28;20028;-60
2023/11/12 05:43:46;;;;;;;12.05;7.88;;;128.30;2252.80;;;;;;5049014;28;20026;-60
2023/11/12 05:46:12;;;;;;;17.30;9.75;;;128.30;2252.80;;;;;;5049309;28;20032;-60
2023/11/12 05:48:38;;;;;;;13.40;7.70;;;128.40;2252.80;;;;;;5049237;28;20017;-60
2023/11/12 05:51:04;;;;;;;11.52;6.93;;;128.50;2252.80;;;;;;5049213;28;20065;-60
2023/11/12 05:53:30;;;;;;;19.88;10.82;;;128.60;2252.80;;;;;;5049338;28;20044;-60
2023/11/12 05:55:55;;;;;;;15.70;8.63;;;128.70;2252.80;;;;;;5049235;28;20033;-60
2023/11/12 05:58:21;;;;;;;19.63;9.25;;;128.70;2252.80;;;;;;5049443;28;20725;-60
2023/11/12 06:00:47;;;;;;;17.70;10.57;;;128.80;2252.80;;;;;;5048789;28;20057;-61
2023/11/12 06:03:13;;;;;;;18.10;9.95;;;128.90;2252.80;;;;;;5049123;28;20060;-60
2023/11/12 06:05:39;;;;;;;16.13;9.52;;;128.80;2252.80;;;;;;5049400;28;20029;-60
2023/11/12 06:08:05;;;;;;;20.90;14.13;;;128.90;2252.80;;;;;;5049283;28;20029;-61
2023/11/12 06:10:31;;;;;;;19.08;9.35;;;153.60;2252.80;;;;;;5049183;28;20029;-60
2023/11/12 06:12:57;;;;;;;14.00;6.43;;;128.80;2252.80;;;;;;5049014;28;20029;-62
2023/11/12 06:15:27;;;;;;;9.38;4.38;;;128.90;2252.80;;;;;;5049673;28;20102;-62
2023/11/12 06:17:53;;;;;;;11.07;6.10;;;128.90;2252.80;;;;;;5049343;28;20498;-60
2023/11/12 06:20:19;;;;;;;25.20;17.33;;;128.90;2252.80;;;;;;5048590;28;20074;-60
2023/11/12 06:22:45;;;;;;;22.45;16.77;;;153.60;2252.80;;;;;;5048758;28;20029;-61
2023/11/12 06:25:11;;;;;;;25.77;17.83;;;153.60;2252.80;;;;;;5049015;28;20356;-62
2023/11/12 06:27:40;;;;;;;17.48;12.82;;;153.70;2252.80;;;;;;5048952;28;20490;-60
2023/11/12 06:30:10;;;;;;;11.48;8.35;;;153.70;2252.80;;;;;;5048773;28;20032;-60
2023/11/12 06:32:37;;;;;;;24.50;18.95;;;153.70;2252.80;;;;;;5049068;28;20037;-61
2023/11/12 06:35:03;;;;;;;126.28;60.30;;;153.70;2252.80;;;;;;5052574;28;20064;-61
2023/11/12 06:37:28;;;;;;;110.30;60.55;;;153.60;2252.80;;;;;;5052664;28;20029;-61
2023/11/12 06:39:54;;;;;;;84.38;51.05;;;153.80;2252.80;;;;;;5052344;28;20033;-60
2023/11/12 06:42:20;;;;;;;29.00;16.52;;;153.90;2252.80;;;;;;5052417;28;20394;-61
2023/11/12 06:44:47;;;;;;;18.98;12.10;;;153.90;2252.80;;;;;;5051891;28;20467;-60
2023/11/12 06:47:14;;;;;;;10.00;6.03;;;153.90;2252.80;;;;;;5051980;28;20040;-63
2023/11/12 06:49:40;;;;;;;8.27;5.75;;;153.80;2252.80;;;;;;5052430;28;20048;-60
2023/11/12 06:52:06;;;;;;;6.95;4.03;;;153.70;2252.80;;;;;;5049585;28;20075;-60
2023/11/12 06:54:32;;;;;;;8.02;4.57;;;153.70;2252.80;;;;;;5050876;28;20024;-60
2023/11/12 06:56:59;;;;;;;9.18;5.20;;;153.80;2252.80;;;;;;5049991;28;20399;-60
2023/11/12 06:59:25;;;;;;;7.28;5.15;;;153.80;2252.80;;;;;;5050518;28;20049;-63
2023/11/12 07:01:51;;;;;;;11.18;7.30;;;153.90;2252.80;;;;;;5050435;28;20111;-62
2023/11/12 07:04:16;;;;;;;15.85;9.90;;;154.00;2252.80;;;;;;5049922;28;20710;-62
2023/11/12 07:06:42;;;;;;;13.15;8.30;;;154.00;2252.80;;;;;;5050475;28;20033;-60
2023/11/12 07:09:08;;;;;;;10.55;7.13;;;154.10;2252.80;;;;;;5050082;28;20025;-61
2023/11/12 07:11:34;;;;;;;10.13;6.63;;;154.20;2252.80;;;;;;5050070;28;20028;-61
2023/11/12 07:14:00;;;;;;;10.85;7.10;;;154.30;2252.80;;;;;;5050411;28;20025;-61
2023/11/12 07:16:26;;;;;;;7.90;4.72;;;154.30;2252.80;;;;;;5050327;28;20090;-62
2023/11/12 07:18:51;;;;;;;6.32;3.40;;;154.30;2252.80;;;;;;5050285;28;20407;-60
2023/11/12 07:21:24;;;;;;;28.77;17.52;;;154.40;2252.80;;;;;;5050098;28;20178;-62
2023/11/12 07:23:50;;;;;;;11.25;6.68;;;154.40;2252.80;;;;;;5032300;28;20032;-61
2023/11/12 07:26:16;;;;;;;7.07;4.70;;;154.30;2252.80;;;;;;5051211;28;20040;-64
2023/11/12 07:28:42;;;;;;;6.03;4.60;;;154.30;2252.80;;;;;;5052153;28;20021;-60
2023/11/12 07:31:08;;;;;;;5.50;4.18;;;154.50;2252.80;;;;;;5051556;28;20494;-59
2023/11/12 07:33:34;;;;;;;6.20;3.75;;;204.90;2252.80;;;;;;5051852;28;20560;-60
2023/11/12 07:36:00;;;;;;;6.15;2.65;;;256.10;2252.80;;;;;;5052960;28;20025;-62
2023/11/12 07:38:26;;;;;;;6.60;3.78;;;282.20;2278.40;;;;;;5051767;28;20394;-59
2023/11/12 07:40:52;;;;;;;5.95;3.50;;;307.60;2304.00;;;;;;5051414;28;20021;-60
2023/11/12 07:43:19;;;;;;;9.40;5.32;;;333.10;2329.60;;;;;;5051193;28;20483;-62
2023/11/12 07:45:45;;;;;;;9.50;6.00;;;384.00;2304.00;;;;;;5050778;28;20017;-60
2023/11/12 07:48:11;;;;;;;9.82;7.00;;;410.30;2176.00;;;;;;5050733;28;20443;-61
2023/11/12 07:50:38;;;;;;;9.50;7.57;;;435.80;2048.00;;;;;;5050513;28;20029;-60
2023/11/12 07:53:03;;;;;;;8.30;6.75;;;436.00;1971.20;;;;;;5050671;28;20090;-61
2023/11/12 07:55:29;;;;;;;12.38;9.65;;;460.90;1945.60;;;;;;5050864;28;20025;-62
2023/11/12 07:57:56;;;;;;;17.42;15.60;;;486.60;1868.80;;;;;;5050930;28;20057;-61
2023/11/12 08:00:22;;;;;;;12.75;11.45;;;487.30;1817.60;;;;;;5050737;28;20064;-62
2023/11/12 08:02:49;;;;;;;12.82;11.50;;;538.00;1715.20;;;;;;5050412;28;20029;-61
2023/11/12 08:05:15;;;;;;;13.27;11.90;;;563.60;1689.60;;;;;;5050715;28;20124;-63
2023/11/12 08:07:41;;;;;;;45.70;37.22;;;564.10;1587.20;;;;;;5050607;28;20109;-61
2023/11/12 08:10:08;;;;;;;40.85;35.35;;;564.10;1587.20;;;;;;5050626;28;20044;-62
2023/11/12 08:12:35;;;;;;;26.48;23.75;;;588.80;1561.60;;;;;;5050415;28;20459;-61
2023/11/12 08:15:01;;;;;;;32.72;28.95;;;564.00;1612.80;;;;;;5050494;28;20288;-63
2023/11/12 08:17:27;;;;;;;28.38;25.20;;;563.90;1587.20;;;;;;5050261;28;20029;-61
2023/11/12 08:19:52;;;;;;;26.00;23.27;;;564.10;1587.20;;;;;;5050033;28;20483;-62
2023/11/12 08:22:19;;;;;;;26.05;23.02;;;563.90;1587.20;;;;;;5049988;28;20041;-64
2023/11/12 08:24:44;;;;;;;30.80;27.63;;;563.80;1561.60;;;;;;5047554;28;20027;-60
2023/11/12 08:27:12;;;;;;;34.60;31.08;;;564.10;1561.60;;;;;;5049581;28;20025;-60
2023/11/12 08:29:37;;;;;;;34.53;31.08;;;564.10;1561.60;;;;;;5049673;28;20017;-64
2023/11/12 08:32:04;;;;;;;35.95;32.25;;;563.70;1587.20;;;;;;5050328;28;20493;-65
2023/11/12 08:34:31;;;;;;;40.80;36.40;;;563.60;1587.20;;;;;;5050589;28;20054;-63
2023/11/12 08:36:57;;;;;;;41.35;37.17;;;563.90;1587.20;;;;;;5050174;28;20033;-63
2023/11/12 08:39:24;;;;;;;49.92;45.10;;;564.00;1536.00;;;;;;5050046;28;20070;-63
2023/11/12 08:41:50;;;;;;;29.00;26.20;;;589.30;1484.80;;;;;;5049961;28;20064;-61
2023/11/12 08:44:16;;;;;;;23.77;21.52;;;589.60;1433.60;;;;;;5049690;28;20025;-62
2023/11/12 08:46:42;;;;;;;17.77;16.15;;;614.60;1433.60;;;;;;5050330;28;20090;-62
2023/11/12 08:49:08;;;;;;;17.33;15.60;;;614.80;1408.00;;;;;;5049612;28;20353;-63
2023/11/12 08:51:35;;;;;;;19.08;17.17;;;615.20;1382.40;;;;;;5049972;28;20028;-63
2023/11/12 08:54:01;;;;;;;25.60;23.00;;;614.40;1433.60;;;;;;5049898;28;20475;-70
2023/11/12 08:56:29;;;;;;;23.95;21.00;;;640.60;1382.40;;;;;;5048524;28;20499;-62
2023/11/12 08:58:56;;;;;;;28.55;25.75;;;640.40;1382.40;;;;;;5048692;28;20059;-61
2023/11/12 09:01:22;;;;;;;20.10;18.02;;;589.60;1408.00;;;;;;5048550;28;20148;-62
2023/11/12 09:03:47;;;;;;;22.63;20.40;;;614.40;1408.00;;;;;;5049415;28;20161;-63
2023/11/12 09:06:13;;;;;;;19.83;17.75;;;640.10;1356.80;;;;;;5049715;28;20021;-60
2023/11/12 09:08:39;;;;;;;7.50;6.63;;;640.10;1356.80;;;;;;5064063;28;20040;-61
2023/11/12 09:11:05;;;;;;;14.50;13.00;;;563.70;1433.60;;;;;;5049343;28;20124;-66
2023/11/12 09:13:31;;;;;;;19.77;17.75;;;537.90;1484.80;;;;;;5048236;28;20104;-63
2023/11/12 09:15:58;;;;;;;23.52;21.15;;;486.70;1612.80;;;;;;5049290;28;20421;-63
2023/11/12 09:18:24;;;;;;;21.00;18.88;;;461.70;1638.40;;;;;;5049317;28;20024;-64
2023/11/12 09:20:52;;;;;;;26.60;23.73;;;461.10;1740.80;;;;;;5045832;28;20078;-63
2023/11/12 09:23:18;;;;;;;26.30;23.15;;;461.10;1740.80;;;;;;5048577;28;20387;-62
2023/11/12 09:25:44;;;;;;;24.38;18.73;;;461.00;1740.80;;;;;;5049137;28;20013;-62
2023/11/12 09:28:11;;;;;;;22.75;19.33;;;410.30;1792.00;;;;;;5049276;28;20479;-63
2023/11/12 09:30:37;;;;;;;21.00;17.65;;;409.70;1843.20;;;;;;5049067;28;20495;-62
2023/11/12 09:33:06;;;;;;;28.23;21.73;;;410.20;1843.20;;;;;;5063634;28;20493;-61
2023/11/12 09:35:32;;;;;;;23.98;20.27;;;409.90;1868.80;;;;;;5069575;28;20055;-64
2023/11/12 09:37:57;;;;;;;22.48;17.25;;;410.00;1894.40;;;;;;5049313;28;20072;-64
2023/11/12 09:40:23;;;;;;;14.52;11.82;;;410.10;1868.80;;;;;;5049920;28;20102;-62
2023/11/12 09:42:53;;;;;;;16.85;14.95;;;409.80;1843.20;;;;;;5049201;28;20179;-63
2023/11/12 09:45:19;;;;;;;22.10;18.80;;;435.40;1792.00;;;;;;5049163;28;20494;-61
2023/11/12 09:47:54;;;;;;;20.52;18.30;;;435.70;1792.00;;;;;;5049117;28;20037;-61
2023/11/12 09:50:24;;;;;;;20.55;15.57;;;435.80;1766.40;;;;;;5049164;28;21237;-62
2023/11/12 09:52:52;;;;;;;26.25;23.52;;;435.40;1766.40;;;;;;5049333;28;20021;-61
2023/11/12 09:55:20;;;;;;;17.23;15.38;;;436.10;1740.80;;;;;;5049142;28;20072;-63
2023/11/12 09:57:46;;;;;;;15.50;13.93;;;435.90;1715.20;;;;;;5048691;28;20026;-63
2023/11/12 10:00:13;;;;;;;14.68;12.73;;;435.50;1766.40;;;;;;5048685;28;20548;-61
2023/11/12 10:02:41;;;;;;;31.27;26.00;;;435.40;1740.80;;;;;;5053119;28;20098;-66
2023/11/12 10:05:10;;;;;;;13.13;10.57;;;410.00;1817.60;;;;;;5059364;28;20102;-65
2023/11/12 10:07:39;;;;;;;15.15;9.65;;;384.80;1843.20;;;;;;5059424;28;20064;-66
2023/11/12 10:10:26;;;;;;;26.90;9.73;;;384.30;1868.80;;;;;;5069205;28;20402;-63
2023/11/12 10:12:56;;;;;;;12.20;8.38;;;359.00;1945.60;;;;;;5059451;28;20035;-64
2023/11/12 10:15:30;;;;;;;13.65;10.45;;;358.80;1945.60;;;;;;5055769;28;20027;-62
2023/11/12 10:17:56;;;;;;;12.18;9.23;;;359.00;1945.60;;;;;;5055150;28;20039;-62
2023/11/12 10:20:23;;;;;;;14.13;9.82;;;358.80;1971.20;;;;;;5060991;28;20032;-66
2023/11/12 10:22:50;;;;;;;15.52;11.13;;;358.70;1945.60;;;;;;5063468;28;20102;-66
2023/11/12 10:25:39;;;;;;;18.95;14.45;;;359.20;1920.00;;;;;;5057987;28;20031;-64
2023/11/12 10:28:09;;;;;;;17.58;9.73;;;359.30;1945.60;;;;;;5057737;28;20021;-65
2023/11/12 10:30:37;;;;;;;14.82;9.85;;;384.10;1920.00;;;;;;5052586;28;20029;-65
2023/11/12 10:33:26;;;;;;;13.77;10.50;;;384.10;1920.00;;;;;;5063465;28;20442;-67
2023/11/12 10:35:54;;;;;;;17.63;14.90;;;359.00;1996.80;;;;;;5058074;28;20079;-66
2023/11/12 10:38:20;;;;;;;15.85;13.13;;;359.10;2022.40;;;;;;5055943;28;20394;-64
2023/11/12 10:41:03;;;;;;;14.05;9.75;;;358.90;2048.00;;;;;;5061892;28;20099;-61
2023/11/12 10:43:34;;;;;;;14.30;9.00;;;358.80;2048.00;;;;;;5061777;28;20047;-63
2023/11/12 10:46:03;;;;;;;52.58;41.60;;;358.50;2022.40;;;;;;5050106;28;20044;-66
2023/11/12 10:48:42;;;;;;;54.13;41.50;;;358.70;2073.60;;;;;;5054666;28;20025;-73
2023/11/12 10:51:10;;;;;;;15.55;11.05;;;359.00;2048.00;;;;;;5061111;28;20075;-65
2023/11/12 10:53:37;;;;;;;11.02;8.05;;;358.50;2048.00;;;;;;5060859;28;20021;-64
2023/11/12 10:56:05;;;;;;;8.35;5.38;;;358.60;1996.80;;;;;;5056589;28;20434;-64
2023/11/12 10:58:31;;;;;;;9.65;5.78;;;358.50;2022.40;;;;;;5062414;28;20021;-65
2023/11/12 11:01:01;;;;;;;16.52;13.98;;;358.80;1996.80;;;;;;5057133;28;20107;-67
2023/11/12 11:03:28;;;;;;;20.00;14.82;;;359.00;2022.40;;;;;;5051580;28;20040;-71
2023/11/12 11:05:56;;;;;;;10.93;7.47;;;358.90;2048.00;;;;;;5051791;28;20027;-62
2023/11/12 11:08:30;;;;;;;9.35;6.50;;;358.50;2099.20;;;;;;5051718;28;20104;-67
2023/11/12 11:10:58;;;;;;;8.70;6.70;;;358.40;2099.20;;;;;;5049333;28;20043;-67
2023/11/12 11:13:25;;;;;;;15.43;11.27;;;358.50;2099.20;;;;;;5051697;28;20025;-65
2023/11/12 11:15:55;;;;;;;12.15;8.70;;;358.60;2073.60;;;;;;5051734;28;20028;-62
2023/11/12 11:18:30;;;;;;;17.92;12.48;;;358.40;2099.20;;;;;;5067060;28;20031;-63
2023/11/12 11:21:17;;;;;;;12.82;8.75;;;358.50;2150.40;;;;;;5064290;28;20017;-64
2023/11/12 11:23:49;;;;;;;12.00;7.38;;;358.40;2099.20;;;;;;5050440;28;20017;-64
2023/11/12 11:26:26;;;;;;;8.50;6.10;;;333.70;2099.20;;;;;;5031368;28;20021;-67
2023/11/12 11:29:10;;;;;;;14.52;10.20;;;333.60;2099.20;;;;;;5048634;28;20529;-63
2023/11/12 11:31:42;;;;;;;;;;;358.50;2099.20;;;;;;5049497;28;20052;-64
2023/11/12 11:34:10;;;;;;;16.55;9.77;;;333.60;2099.20;;;;;;5051243;28;19960;-61
2023/11/12 11:36:37;;;;;;;10.05;6.97;;;333.70;2099.20;;;;;;5051188;28;20040;-64
2023/11/12 11:39:07;;;;;;;18.42;12.65;;;358.40;2099.20;;;;;;5051386;28;20017;-61
2023/11/12 11:41:45;;;;;;;9.27;3.95;;;358.70;2048.00;;;;;;5048627;28;20124;-61
2023/11/12 11:44:42;;;;;;;12.82;7.50;;;358.60;1920.00;;;;;;5051375;28;20025;-64
2023/11/12 11:47:26;;;;;;;47.45;25.23;;;358.70;1971.20;;;;;;5051638;28;20471;-65
2023/11/12 11:49:57;;;;;;;19.30;12.52;;;358.80;1996.80;;;;;;5051660;28;20562;-62
2023/11/12 11:52:25;;;;;;;17.42;11.65;;;358.80;2022.40;;;;;;5051423;28;20162;-63
2023/11/12 11:54:59;;;;;;;14.68;8.07;;;359.10;1996.80;;;;;;5051728;28;20028;-62
2023/11/12 11:57:26;;;;;;;12.32;6.75;;;359.00;2022.40;;;;;;5051269;28;20025;-62
2023/11/12 11:59:57;;;;;;;12.27;7.00;;;359.00;1971.20;;;;;;5051116;28;20021;-63
2023/11/12 12:02:25;;;;;;;15.68;10.43;;;359.20;1945.60;;;;;;5050432;28;20499;-62
2023/11/12 12:04:57;;;;;;;14.95;10.48;;;359.30;1971.20;;;;;;5050853;28;20024;-61